X  Close Metar Aviation Weather Data     KBDL Bradley International Airport
Temperature
81°F Temperature
59°F Dewpoint
48% Humidity



Wind
7 MPH
11 KM/H
3 M/S
6 KTS



300°
WNW
Current Conditions

Partly Cloudy Partly Cloudy
Pressure 1012.87 (hPa) - 29.91 (inHg)
Visibility 10 (mile) - 16.1 (km)
Airport
Airport-code KBDL

Location: Bradley International Airport
Distance: 21 (mi)

Metar:
KBDL 182251Z 30006KT 10SM FEW060 BKN200 BKN240 27/15 A2991 RMK AO2 SLP126 T02720150

Time: 07-18-2024 6:51 pm EDT